Flight Track Log - Related Links

Times and Time Zones

All times are in EDT time to prevent confusion due to time zone crossing. See the SWA1377 flight status page for this flight to view local times or setup timezone preferences in your user account.

Time Position Orientation Groundspeed Altitude Reporting Facility
EDT Latitude Longitude Course Direction KTS MPH feet Rate Location/Type
Mon 07:08:24 AM 29.5467 -98.4492 39° Northeast 164 189 1,500  Level Houston Center
Mon 07:08:43 AM 29.5608 -98.4358 39° Northeast 166 191 2,200 1,975 Climbing Houston Center
Mon 07:09:43 AM 29.6125 -98.3997 31° Northeast 227 261 4,100 2,331 Climbing Houston Center
Mon 07:10:44 AM 29.6883 -98.4042 357° North 278 320 6,900 3,322 Climbing Houston Center
Mon 07:11:44 AM 29.7700 -98.4006 North 294 338 10,800 3,322 Climbing Houston Center
Mon 07:12:45 AM 29.8642 -98.3983 North 343 395 13,600 3,074 Climbing Houston Center
Mon 07:13:45 AM 29.9619 -98.3658 16° North 367 422 17,000 3,421 Climbing Houston Center
Mon 07:14:46 AM 30.0689 -98.3244 19° North 374 430 20,500 3,000 Climbing Houston Center
Mon 07:15:47 AM 30.1725 -98.2828 19° North 391 450 23,100 2,529 Climbing Houston Center
Mon 07:16:47 AM 30.2794 -98.2406 19° North 405 466 25,600 2,132 Climbing Houston Center
Mon 07:17:48 AM 30.3794 -98.2025 18° North 421 484 27,400 1,623 Climbing Houston Center
Mon 07:18:49 AM 30.4958 -98.1558 19° North 436 502 28,900 1,623 Climbing Houston Center
Mon 07:19:50 AM 30.6181 -98.1078 19° North 452 520 30,700 2,033 Climbing Houston Center
Mon 07:20:50 AM 30.7414 -98.0589 19° North 459 528 33,000 1,835 Climbing Houston Center
Mon 07:21:51 AM 30.8636 -98.0103 19° North 457 526 34,400 1,364 Climbing Houston Center
Mon 07:22:18 AM 30.9322 -97.9847 18° North 452 520 35,000 1,931 Climbing Fort Worth Center
Mon 07:23:18 AM 31.0514 -97.9369 19° North 458 527 37,200 1,850 Climbing Fort Worth Center
Mon 07:24:18 AM 31.1686 -97.8892 19° North 446 513 38,700 900 Climbing Fort Worth Center
Mon 07:25:18 AM 31.2878 -97.8411 19° North 441 507 39,000 150 Climbing Fort Worth Center
Mon 07:26:18 AM 31.4047 -97.7956 18° North 441 507 39,000  Level Fort Worth Center
Mon 07:27:18 AM 31.5092 -97.7519 20° North 441 507 39,000  Level Fort Worth Center
Mon 07:28:18 AM 31.6283 -97.7036 19° North 441 507 39,000  Level Fort Worth Center
Mon 07:29:18 AM 31.7453 -97.6578 18° North 441 507 39,000  Level Fort Worth Center
Mon 07:30:18 AM 31.8625 -97.6092 19° North 441 507 39,000  Level Fort Worth Center
Mon 07:31:18 AM 31.9836 -97.5556 21° North 435 501 39,000  Level Fort Worth Center
Mon 07:32:18 AM 32.1006 -97.5092 19° North 435 501 39,000  Level Fort Worth Center
Mon 07:33:18 AM 32.2175 -97.4600 20° North 435 501 39,000  Level Fort Worth Center
Mon 07:34:18 AM 32.3303 -97.4061 22° Northeast 435 501 39,000  Level Fort Worth Center
Mon 07:35:18 AM 32.4367 -97.3272 32° Northeast 435 501 39,000  Level Fort Worth Center
Mon 07:36:18 AM 32.5411 -97.2483 32° Northeast 442 509 39,000  Level Fort Worth Center
Mon 07:37:18 AM 32.6472 -97.1667 33° Northeast 447 514 39,000  Level Fort Worth Center
Mon 07:38:18 AM 32.7514 -97.0847 33° Northeast 447 514 39,000  Level Fort Worth Center
Mon 07:39:18 AM 32.8472 -97.0128 32° Northeast 452 520 39,000  Level Fort Worth Center
Mon 07:40:18 AM 32.9619 -96.9256 33° Northeast 447 514 39,000  Level Fort Worth Center
Mon 07:41:18 AM 33.0700 -96.8433 33° Northeast 456 525 39,000  Level Fort Worth Center
Mon 07:42:18 AM 33.1719 -96.7631 33° Northeast 447 514 39,000  Level Fort Worth Center
Mon 07:43:18 AM 33.2675 -96.6906 32° Northeast 447 514 39,000  Level Fort Worth Center
Mon 07:44:18 AM 33.3694 -96.6125 33° Northeast 442 509 39,000  Level Fort Worth Center
Mon 07:45:18 AM 33.4711 -96.5344 33° Northeast 435 501 39,000  Level Fort Worth Center
Mon 07:46:18 AM 33.5750 -96.4561 32° Northeast 434 499 39,000  Level Fort Worth Center
Mon 07:47:18 AM 33.6744 -96.3775 33° Northeast 434 499 39,000  Level Fort Worth Center
Mon 07:48:18 AM 33.7781 -96.2964 33° Northeast 434 499 39,000  Level Fort Worth Center
Mon 07:49:18 AM 33.8775 -96.2200 33° Northeast 429 494 39,000  Level Fort Worth Center
Mon 07:50:18 AM 33.9875 -96.1333 33° Northeast 429 494 39,000  Level Fort Worth Center
Mon 07:51:18 AM 34.0889 -96.0517 34° Northeast 437 503 39,000  Level Fort Worth Center
Mon 07:52:18 AM 34.1839 -95.9725 35° Northeast 425 489 39,000  Level Fort Worth Center
Mon 07:53:18 AM 34.2831 -95.8953 33° Northeast 425 489 39,000  Level Fort Worth Center
Mon 07:54:18 AM 34.3886 -95.8131 33° Northeast 431 496 39,000  Level Fort Worth Center
Mon 07:55:18 AM 34.4875 -95.7331 34° Northeast 431 496 39,000  Level Fort Worth Center
Mon 07:56:18 AM 34.5886 -95.6503 34° Northeast 431 496 39,000  Level Fort Worth Center
Mon 07:57:18 AM 34.6919 -95.5700 33° Northeast 431 496 39,000  Level Fort Worth Center
Mon 07:58:18 AM 34.7867 -95.4972 32° Northeast 436 502 39,000  Level Fort Worth Center
Mon 08:00:27 AM 35.0092 -95.3103 35° Northeast 438 504 39,000  Level Kansas City Center
Mon 08:01:28 AM 35.1125 -95.2264 34° Northeast 442 509 39,000  Level Kansas City Center
Mon 08:02:29 AM 35.2131 -95.1436 34° Northeast 439 505 39,000  Level Kansas City Center
Mon 08:03:31 AM 35.3147 -95.0608 34° Northeast 439 505 39,000  Level Kansas City Center
Mon 08:04:33 AM 35.4161 -94.9808 33° Northeast 431 496 39,000  Level Memphis Center
Mon 08:05:33 AM 35.5150 -94.8997 34° Northeast 431 496 39,000  Level Memphis Center
Mon 08:06:33 AM 35.6161 -94.8158 34° Northeast 431 496 39,000  Level Memphis Center
Mon 08:07:33 AM 35.7169 -94.7319 34° Northeast 431 496 39,000  Level Memphis Center
Mon 08:08:33 AM 35.8181 -94.6475 34° Northeast 431 496 39,000  Level Memphis Center
Mon 08:09:33 AM 35.9167 -94.5631 35° Northeast 431 496 39,000  Level Memphis Center
Mon 08:10:33 AM 36.0175 -94.4783 34° Northeast 431 496 39,000  Level Memphis Center
Mon 08:11:33 AM 36.1183 -94.3936 34° Northeast 431 496 39,000  Level Memphis Center
Mon 08:12:33 AM 36.2192 -94.3083 34° Northeast 431 496 39,000  Level Memphis Center
Mon 08:14:44 AM 36.4419 -94.1222 34° Northeast 442 509 39,000  Level Kansas City Center
Mon 08:15:45 AM 36.5439 -94.0361 34° Northeast 442 509 39,000  Level Kansas City Center
Mon 08:16:46 AM 36.6444 -93.9497 35° Northeast 439 505 39,000  Level Kansas City Center
Mon 08:17:48 AM 36.7453 -93.8636 34° Northeast 439 505 39,000  Level Kansas City Center
Mon 08:18:49 AM 36.8661 -93.7589 35° Northeast 439 505 39,000  Level Kansas City Center
Mon 08:19:50 AM 36.9625 -93.6747 35° Northeast 431 496 39,000  Level Kansas City Center
Mon 08:20:51 AM 37.0639 -93.5856 35° Northeast 438 504 39,000  Level Kansas City Center
Mon 08:21:53 AM 37.1656 -93.4986 34° Northeast 440 506 39,000  Level Kansas City Center
Mon 08:22:54 AM 37.2683 -93.4125 34° Northeast 442 509 39,000  Level Kansas City Center
Mon 08:23:55 AM 37.3708 -93.3211 35° Northeast 450 518 39,000  Level Kansas City Center
Mon 08:24:57 AM 37.4703 -93.2317 36° Northeast 443 510 39,000  Level Kansas City Center
Mon 08:25:58 AM 37.5683 -93.1378 37° Northeast 440 506 39,000  Level Kansas City Center
Mon 08:26:59 AM 37.6703 -93.0450 36° Northeast 446 513 39,000  Level Kansas City Center
Mon 08:28:01 AM 37.7703 -92.9514 36° Northeast 445 512 39,000  Level Kansas City Center
Mon 08:29:02 AM 37.8708 -92.8572 36° Northeast 445 512 39,000  Level Kansas City Center
Mon 08:30:03 AM 37.9925 -92.7431 36° Northeast 448 516 39,000  Level Kansas City Center
Mon 08:31:05 AM 38.0797 -92.6614 36° Northeast 447 514 39,000  Level Kansas City Center
Mon 08:32:06 AM 38.1964 -92.5517 36° Northeast 448 516 39,000  Level Kansas City Center
Mon 08:33:07 AM 38.2961 -92.4561 37° Northeast 444 511 39,000  Level Kansas City Center
Mon 08:34:09 AM 38.3958 -92.3614 37° Northeast 442 509 39,000  Level Kansas City Center
Mon 08:35:10 AM 38.4933 -92.2667 37° Northeast 439 505 39,000  Level Kansas City Center
Mon 08:36:11 AM 38.5914 -92.1733 37° Northeast 438 504 39,000  Level Kansas City Center
Mon 08:37:13 AM 38.6897 -92.0797 37° Northeast 438 504 39,000  Level Kansas City Center
Mon 08:38:14 AM 38.7875 -91.9856 37° Northeast 439 505 39,000  Level Kansas City Center
Mon 08:39:16 AM 38.8864 -91.8897 37° Northeast 440 506 39,000  Level Kansas City Center
Mon 08:40:17 AM 38.9847 -91.7933 37° Northeast 442 509 39,000  Level Kansas City Center
Mon 08:41:18 AM 39.0847 -91.6953 37° Northeast 445 512 39,000  Level Kansas City Center
Mon 08:42:20 AM 39.1828 -91.6017 36° Northeast 447 514 39,000  Level Kansas City Center
Mon 08:43:21 AM 39.2831 -91.5028 37° Northeast 450 518 39,000  Level Kansas City Center
Mon 08:44:23 AM 39.3797 -91.4075 37° Northeast 443 510 39,000 -341 Level Kansas City Center
Mon 08:45:24 AM 39.4958 -91.2933 37° Northeast 438 504 38,300 -780 Descending Kansas City Center
Mon 08:46:26 AM 39.5928 -91.1956 38° Northeast 439 505 37,400 -927 Descending Kansas City Center
Mon 08:47:27 AM 39.6917 -91.0986 37° Northeast 442 509 36,400 -878 Descending Kansas City Center
Mon 08:48:29 AM 39.7747 -90.9953 44° Northeast 453 521 35,600 -780 Descending Kansas City Center
Mon 08:49:30 AM 39.8761 -90.8625 45° Northeast 450 518 34,800 -885 Descending Kansas City Center
Mon 08:50:31 AM 39.9658 -90.7453 45° Northeast 454 522 33,800 -1,024 Descending Kansas City Center
Mon 08:51:33 AM 40.0522 -90.6308 45° Northeast 447 514 32,700 -1,024 Descending Kansas City Center
Mon 08:52:34 AM 40.1383 -90.5181 45° Northeast 441 507 31,700 -981 Descending Kansas City Center
Mon 08:53:17 AM 40.2044 -90.4300 45° Northeast 431 496 31,000 -400 Descending Chicago Center
Mon 08:54:19 AM 40.2872 -90.3214 45° Northeast 425 489 31,000 -726 Level Chicago Center
Mon 08:55:21 AM 40.3731 -90.2069 45° Northeast 437 503 29,500 -1,317 Descending Chicago Center
Mon 08:56:22 AM 40.4703 -90.0756 46° Northeast 460 529 28,300 -1,122 Descending Chicago Center
Mon 08:57:24 AM 40.5608 -89.9531 46° Northeast 468 539 27,200 -1,548 Descending Chicago Center
Mon 08:58:26 AM 40.6369 -89.8267 52° Northeast 445 512 25,100 -1,645 Descending Chicago Center
Mon 08:59:28 AM 40.7139 -89.7019 51° Northeast 442 509 23,800 -1,645 Descending Chicago Center
Mon 09:00:30 AM 40.7919 -89.5778 50° Northeast 437 503 21,700 -2,323 Descending Chicago Center
Mon 09:01:32 AM 40.8700 -89.4517 51° Northeast 424 488 19,000 -2,371 Descending Chicago Center
Mon 09:02:34 AM 40.9389 -89.3381 51° Northeast 400 460 16,800 -1,561 Descending Chicago Center
Mon 09:03:35 AM 41.0061 -89.2286 51° Northeast 386 444 15,800 -1,024 Descending Chicago Center
Mon 09:04:37 AM 41.0808 -89.1028 52° Northeast 384 442 14,700 -1,016 Descending Chicago Center
Mon 09:05:39 AM 41.1458 -88.9944 51° Northeast 378 435 13,700 -1,355 Descending Chicago Center
Mon 09:06:41 AM 41.2106 -88.8856 52° Northeast 376 433 11,900 -1,887 Descending Chicago Center
Mon 09:07:43 AM 41.2814 -88.7678 51° Northeast 341 392 9,800 -1,548 Descending Chicago Center
Mon 09:08:45 AM 41.3303 -88.6811 53° Northeast 300 345 8,700 -1,220 Descending Chicago Center
Mon 09:09:46 AM 41.3794 -88.5994 51° Northeast 285 328 7,300 -1,317 Descending Chicago Center
Mon 09:10:48 AM 41.4283 -88.5197 51° Northeast 280 322 6,000 -629 Descending Chicago Center
Mon 09:11:50 AM 41.4753 -88.4386 52° Northeast 277 319 6,000 -48 Level Chicago Center
Mon 09:12:52 AM 41.5219 -88.3569 53° Northeast 276 318 5,900 -484 Descending Chicago Center
Mon 09:13:54 AM 41.5397 -88.2556 77° East 278 320 5,000 -435 Descending Chicago Center
Mon 09:14:56 AM 41.5572 -88.1364 79° East 270 311 5,000  Level Chicago Center
Mon 09:15:58 AM 41.5592 -88.0353 88° East 270 311 5,000  Level Chicago Center
Mon 09:17:00 AM 41.5622 -87.9350 88° East 269 310 5,000  Level Chicago Center
Mon 09:18:02 AM 41.5653 -87.8444 87° East 254 292 5,000  Level Chicago Center
Mon 09:19:04 AM 41.5669 -87.7711 88° East 225 259 5,000  Level Chicago Center
Mon 09:20:06 AM 41.5689 -87.7039 88° East 200 230 5,000 -435 Level Chicago Center
Mon 09:21:08 AM 41.5969 -87.6514 54° Northeast 195 224 4,100 -968 Descending Chicago Center
Mon 09:22:10 AM 41.6475 -87.6033 35° Northeast 190 219 3,000 -774 Descending Chicago Center
Mon 09:23:12 AM 41.6942 -87.6228 343° North 189 217 2,500 -319 Descending Chicago Center
Mon 09:23:44 AM 41.7167 -87.6500 318° Northwest 165 190 2,500 -261 Level Chicago TRACON
Mon 09:24:44 AM 41.7500 -87.6667 340° North 159 183 2,100 -350 Descending Chicago TRACON
Mon 09:25:44 AM 41.7833 -87.6833 340° North 138 159 1,800 -400 Descending Chicago TRACON
Mon 09:26:44 AM 41.8167 -87.7167 323° Northwest 123 142 1,300 -500 Descending Chicago TRACON

Login

Don't have an account? Register now (free) for customized features, flight alerts, and more!